createdAt,value
2022-08-16T00:00:38.651Z,99868.00
2022-08-16T00:03:13.357Z,99863.00
2022-08-16T00:05:48.515Z,99850.00
2022-08-16T00:08:36.319Z,99849.00
2022-08-16T00:11:05.788Z,99855.00
2022-08-16T00:13:41.923Z,99851.00
2022-08-16T00:17:06.215Z,99843.00
2022-08-16T00:18:59.652Z,99848.00
2022-08-16T00:21:29.185Z,99852.00
2022-08-16T00:23:57.047Z,99841.00
2022-08-16T00:26:34.858Z,99843.00
2022-08-16T00:29:07.961Z,99845.00
2022-08-16T00:32:00.024Z,99845.00
2022-08-16T00:34:45.166Z,99851.00
2022-08-16T00:37:12.481Z,99846.00
2022-08-16T00:39:45.386Z,99857.00
2022-08-16T00:42:30.191Z,99856.00
2022-08-16T00:45:08.273Z,99864.00
2022-08-16T00:47:42.645Z,99853.00
2022-08-16T00:50:16.995Z,99855.00
2022-08-16T00:52:45.976Z,99848.00
2022-08-16T00:55:20.599Z,99854.00
2022-08-16T00:57:58.881Z,99854.00
2022-08-16T01:00:32.438Z,99858.00
2022-08-16T01:03:11.729Z,99857.00
2022-08-16T01:05:41.680Z,99852.00
2022-08-16T01:08:35.408Z,99855.00
2022-08-16T01:11:00.045Z,99855.00
2022-08-16T01:13:31.480Z,99853.00
2022-08-16T01:16:03.841Z,99850.00
2022-08-16T01:18:44.103Z,99852.00
2022-08-16T01:21:33.670Z,99847.00
2022-08-16T01:24:52.120Z,99854.00
2022-08-16T01:27:15.039Z,99859.00
2022-08-16T01:29:57.587Z,99869.00
2022-08-16T01:32:33.603Z,99877.00
2022-08-16T01:35:05.754Z,99873.00
2022-08-16T01:37:40.579Z,99871.00
2022-08-16T01:40:13.876Z,99881.00
2022-08-16T01:42:44.212Z,99883.00
2022-08-16T01:45:16.677Z,99888.00
2022-08-16T01:47:50.998Z,99871.00
2022-08-16T01:50:42.001Z,99898.00
2022-08-16T01:53:11.078Z,99891.00
2022-08-16T01:55:42.807Z,99894.00
2022-08-16T01:58:23.552Z,99906.00
2022-08-16T02:00:51.665Z,99889.00
2022-08-16T02:03:21.327Z,99901.00
2022-08-16T02:05:52.543Z,99898.00
2022-08-16T02:08:33.009Z,99897.00
2022-08-16T02:11:04.874Z,99895.00
2022-08-16T02:13:33.078Z,99893.00
2022-08-16T02:16:01.302Z,99906.00
2022-08-16T02:18:29.603Z,99898.00
2022-08-16T02:20:57.438Z,99887.00
2022-08-16T02:23:29.456Z,99897.00
2022-08-16T02:25:59.938Z,99895.00
2022-08-16T02:28:30.118Z,99897.00
2022-08-16T02:31:00.488Z,99885.00
2022-08-16T02:33:42.851Z,99902.00
2022-08-16T02:36:14.297Z,99899.00
2022-08-16T02:39:01.837Z,99886.00
2022-08-16T02:41:29.815Z,99879.00
2022-08-16T02:44:00.074Z,99897.00
2022-08-16T02:46:33.308Z,99896.00
2022-08-16T02:49:01.998Z,99897.00
2022-08-16T02:51:30.001Z,99900.00
2022-08-16T02:54:01.180Z,99912.00
2022-08-16T02:56:32.283Z,99905.00
2022-08-16T02:59:02.156Z,99904.00
2022-08-16T03:01:36.592Z,99907.00
2022-08-16T03:04:40.806Z,99887.00
2022-08-16T03:06:56.791Z,99910.00
2022-08-16T03:09:28.714Z,99901.00
2022-08-16T03:11:58.094Z,99889.00
2022-08-16T03:14:27.602Z,99886.00
2022-08-16T03:16:59.764Z,99887.00
2022-08-16T03:19:48.149Z,99892.00
2022-08-16T03:22:19.092Z,99898.00
2022-08-16T03:24:57.403Z,99894.00
2022-08-16T03:27:25.559Z,99895.00
2022-08-16T03:30:01.080Z,99888.00
2022-08-16T03:32:29.969Z,99886.00
2022-08-16T03:34:57.737Z,99891.00
2022-08-16T03:37:25.559Z,99871.00
2022-08-16T03:39:56.234Z,99866.00
2022-08-16T03:42:24.868Z,99893.00
2022-08-16T03:45:02.884Z,99891.00
2022-08-16T03:47:34.304Z,99900.00
2022-08-16T03:50:03.286Z,99897.00
2022-08-16T03:52:31.474Z,99888.00
2022-08-16T03:55:00.504Z,99891.00
2022-08-16T03:57:31.686Z,99890.00
2022-08-16T04:00:12.274Z,99900.00
2022-08-16T04:03:07.358Z,99875.00
2022-08-16T04:05:37.679Z,99898.00
2022-08-16T04:08:23.071Z,99905.00
2022-08-16T04:10:53.306Z,99909.00
2022-08-16T04:14:01.590Z,99909.00
2022-08-16T04:16:21.883Z,99905.00
2022-08-16T04:19:02.015Z,99906.00
2022-08-16T04:21:30.800Z,99899.00
2022-08-16T04:24:00.231Z,99916.00
2022-08-16T04:26:31.207Z,99911.00
2022-08-16T04:29:18.298Z,99907.00
2022-08-16T04:31:56.129Z,99913.00
2022-08-16T04:34:29.639Z,99902.00
2022-08-16T04:37:00.984Z,99922.00
2022-08-16T04:39:46.052Z,99918.00
2022-08-16T04:42:16.206Z,99925.00
2022-08-16T04:44:53.410Z,99925.00
2022-08-16T04:47:24.149Z,99931.00
2022-08-16T04:49:54.043Z,99935.00
2022-08-16T04:52:33.748Z,99927.00
2022-08-16T04:55:06.106Z,99932.00
2022-08-16T04:57:34.128Z,99933.00
2022-08-16T05:00:32.308Z,99946.00
2022-08-16T05:02:54.881Z,99947.00
2022-08-16T05:05:25.537Z,99941.00
2022-08-16T05:08:00.817Z,99953.00
2022-08-16T05:10:48.608Z,99947.00
2022-08-16T05:13:19.034Z,99950.00
2022-08-16T05:15:46.992Z,99939.00
2022-08-16T05:18:21.991Z,99941.00
2022-08-16T05:21:01.624Z,99940.00
2022-08-16T05:23:38.800Z,99941.00
2022-08-16T05:26:19.562Z,99927.00
2022-08-16T05:28:55.669Z,99942.00
2022-08-16T05:31:24.236Z,99949.00
2022-08-16T05:33:58.578Z,99953.00
2022-08-16T05:36:33.893Z,99954.00
2022-08-16T05:39:06.795Z,99954.00
2022-08-16T05:41:44.719Z,99933.00
2022-08-16T05:44:22.546Z,99954.00
2022-08-16T05:46:54.685Z,99957.00
2022-08-16T05:49:23.443Z,99959.00
2022-08-16T05:51:52.958Z,99967.00
2022-08-16T05:54:25.735Z,99973.00
2022-08-16T05:56:55.716Z,99976.00
2022-08-16T05:59:24.219Z,99977.00
2022-08-16T06:01:54.878Z,99983.00
2022-08-16T06:04:34.804Z,99969.00
2022-08-16T06:07:09.124Z,99974.00
2022-08-16T06:09:59.572Z,99978.00
2022-08-16T06:12:29.003Z,99972.00
2022-08-16T06:15:04.313Z,99979.00
2022-08-16T06:17:42.438Z,99969.00
2022-08-16T06:20:18.061Z,99989.00
2022-08-16T06:22:58.812Z,99984.00
2022-08-16T06:25:36.712Z,99989.00
2022-08-16T06:28:09.765Z,99996.00
2022-08-16T06:30:44.146Z,99993.00
2022-08-16T06:33:19.907Z,99989.00
2022-08-16T06:35:55.186Z,99991.00
2022-08-16T06:38:33.649Z,100000.00
2022-08-16T06:41:04.111Z,100002.00
2022-08-16T06:43:33.081Z,100006.00
2022-08-16T06:46:03.896Z,99996.00
2022-08-16T06:48:35.076Z,99983.00
2022-08-16T06:51:04.290Z,100001.00
2022-08-16T06:53:35.522Z,100013.00
2022-08-16T06:56:06.622Z,100009.00
2022-08-16T06:58:43.110Z,99994.00
2022-08-16T07:01:14.798Z,100015.00
2022-08-16T07:03:55.637Z,100022.00
2022-08-16T07:06:26.686Z,100020.00
2022-08-16T07:08:56.845Z,100028.00
2022-08-16T07:11:48.181Z,100021.00
2022-08-16T07:14:24.274Z,100028.00
2022-08-16T07:16:58.217Z,100032.00
2022-08-16T07:19:33.639Z,100034.00
2022-08-16T07:22:38.687Z,100029.00
2022-08-16T07:25:05.341Z,100031.00
2022-08-16T07:27:33.658Z,100034.00
2022-08-16T07:30:02.007Z,100041.00
2022-08-16T07:32:32.428Z,100028.00
2022-08-16T07:35:02.856Z,100038.00
2022-08-16T07:37:30.627Z,100043.00
2022-08-16T07:39:58.720Z,100042.00
2022-08-16T07:42:34.894Z,100050.00
2022-08-16T07:45:07.615Z,100041.00
2022-08-16T07:47:38.344Z,100047.00
2022-08-16T07:50:57.448Z,100045.00
2022-08-16T07:53:00.207Z,100058.00
2022-08-16T07:55:30.311Z,100051.00
2022-08-16T07:58:18.525Z,100074.00
2022-08-16T08:01:05.517Z,100057.00
2022-08-16T08:03:42.515Z,100065.00
2022-08-16T08:06:13.364Z,100064.00
2022-08-16T08:08:49.802Z,100066.00
2022-08-16T08:11:21.301Z,100078.00
2022-08-16T08:13:51.196Z,100048.00
2022-08-16T08:16:19.913Z,100059.00
2022-08-16T08:18:50.549Z,100057.00
2022-08-16T08:21:58.183Z,100063.00
2022-08-16T08:24:17.387Z,100063.00
2022-08-16T08:26:49.836Z,100053.00
2022-08-16T08:29:22.969Z,100060.00
2022-08-16T08:32:57.571Z,100059.00
2022-08-16T08:34:53.929Z,100059.00
2022-08-16T08:37:22.513Z,100068.00
2022-08-16T08:39:55.177Z,100081.00
2022-08-16T08:42:26.761Z,100077.00
2022-08-16T08:44:57.148Z,100067.00
2022-08-16T08:47:25.059Z,100076.00
2022-08-16T08:49:55.507Z,100067.00
2022-08-16T08:52:33.678Z,100075.00
2022-08-16T08:55:10.383Z,100083.00
2022-08-16T08:57:40.958Z,100091.00
2022-08-16T09:00:13.792Z,100086.00
2022-08-16T09:02:45.675Z,100089.00
2022-08-16T09:05:23.048Z,100085.00
2022-08-16T09:08:06.086Z,100089.00
2022-08-16T09:10:34.861Z,100077.00
2022-08-16T09:13:08.821Z,100078.00
2022-08-16T09:15:40.758Z,100082.00
2022-08-16T09:18:25.384Z,100084.00
2022-08-16T09:20:58.850Z,100063.00
2022-08-16T09:23:28.067Z,100065.00
2022-08-16T09:25:55.940Z,100091.00
2022-08-16T09:29:06.819Z,100081.00
2022-08-16T09:31:13.944Z,100088.00
2022-08-16T09:33:42.972Z,100093.00
2022-08-16T09:36:12.081Z,100090.00
2022-08-16T09:39:01.012Z,100079.00
2022-08-16T09:41:28.831Z,100099.00
2022-08-16T09:44:00.475Z,100090.00
2022-08-16T09:46:48.458Z,100096.00
2022-08-16T09:49:20.207Z,100087.00
2022-08-16T09:51:53.327Z,100098.00
2022-08-16T09:54:22.122Z,100095.00
2022-08-16T09:56:54.380Z,100087.00
2022-08-16T09:59:23.347Z,100098.00
2022-08-16T10:01:53.227Z,100105.00
2022-08-16T10:04:31.225Z,100093.00
2022-08-16T10:07:15.274Z,100080.00
2022-08-16T10:09:53.634Z,100092.00
2022-08-16T10:12:43.596Z,100086.00
2022-08-16T10:15:15.900Z,100088.00
2022-08-16T10:18:00.716Z,100082.00
2022-08-16T10:20:31.675Z,100093.00
2022-08-16T10:23:06.162Z,100088.00
2022-08-16T10:27:18.632Z,100097.00
2022-08-16T10:28:29.995Z,100098.00
2022-08-16T10:31:03.464Z,100089.00
2022-08-16T10:33:34.791Z,100100.00
2022-08-16T10:36:38.150Z,100090.00
2022-08-16T10:39:01.994Z,100102.00
2022-08-16T10:41:29.956Z,100090.00
2022-08-16T10:43:58.373Z,100099.00
2022-08-16T10:46:39.878Z,100096.00
2022-08-16T10:49:12.510Z,100104.00
2022-08-16T10:52:01.306Z,100098.00
2022-08-16T10:54:32.103Z,100103.00
2022-08-16T10:57:01.024Z,100105.00
2022-08-16T10:59:44.973Z,100100.00
2022-08-16T11:02:59.696Z,100092.00
2022-08-16T11:05:14.394Z,100097.00
2022-08-16T11:07:45.206Z,100102.00
2022-08-16T11:19:03.672Z,100080.00
2022-08-16T11:22:11.098Z,100102.00
2022-08-16T11:24:39.733Z,100104.00
2022-08-16T11:27:32.476Z,100104.00
2022-08-16T11:29:57.877Z,100087.00
2022-08-16T11:32:32.060Z,100099.00
2022-08-16T11:35:14.950Z,100115.00
2022-08-16T11:38:24.039Z,100102.00
2022-08-16T11:40:44.369Z,100099.00
2022-08-16T11:43:16.925Z,100114.00
2022-08-16T11:45:53.510Z,100116.00
2022-08-16T11:48:22.506Z,100118.00
2022-08-16T11:50:50.379Z,100125.00
2022-08-16T11:53:22.009Z,100110.00
2022-08-16T11:55:55.084Z,100108.00
2022-08-16T11:58:24.480Z,100116.00
2022-08-16T12:00:53.838Z,100115.00
2022-08-16T12:03:34.638Z,100110.00
2022-08-16T12:06:11.160Z,100116.00
2022-08-16T12:09:01.075Z,100099.00
2022-08-16T12:11:31.537Z,100106.00
2022-08-16T12:14:00.289Z,100104.00
2022-08-16T12:16:31.172Z,100116.00
2022-08-16T12:19:02.663Z,100118.00
2022-08-16T12:21:35.872Z,100117.00
2022-08-16T12:24:22.183Z,100114.00
2022-08-16T12:26:52.393Z,100107.00
2022-08-16T12:29:20.728Z,100109.00
2022-08-16T12:32:01.283Z,100123.00
2022-08-16T12:34:39.799Z,100116.00
2022-08-16T12:37:18.795Z,100112.00
2022-08-16T12:39:50.882Z,100106.00
2022-08-16T12:42:20.851Z,100122.00
2022-08-16T12:44:52.595Z,100120.00
2022-08-16T12:47:38.211Z,100098.00
2022-08-16T12:50:07.580Z,100111.00
2022-08-16T12:52:41.698Z,100111.00
2022-08-16T12:55:23.902Z,100121.00
2022-08-16T12:58:01.715Z,100120.00
2022-08-16T13:00:33.057Z,100114.00
2022-08-16T13:03:03.276Z,100109.00
2022-08-16T13:08:07.579Z,100117.00
2022-08-16T13:10:50.726Z,100112.00
2022-08-16T13:13:25.375Z,100103.00
2022-08-16T13:15:55.949Z,100113.00
2022-08-16T13:18:33.734Z,100110.00
2022-08-16T13:21:03.232Z,100115.00
2022-08-16T13:23:31.219Z,100117.00
2022-08-16T13:26:00.629Z,100117.00
2022-08-16T13:28:28.408Z,100118.00
2022-08-16T13:30:57.889Z,100125.00
2022-08-16T13:33:30.449Z,100122.00
2022-08-16T13:36:01.289Z,100119.00
2022-08-16T13:38:36.457Z,100122.00
2022-08-16T13:41:09.771Z,100110.00
2022-08-16T13:43:39.047Z,100108.00
2022-08-16T13:46:07.578Z,100119.00
2022-08-16T13:48:42.826Z,100111.00
2022-08-16T13:51:16.860Z,100112.00
2022-08-16T13:53:54.416Z,100113.00
2022-08-16T13:56:37.394Z,100111.00
2022-08-16T13:59:16.558Z,100115.00
2022-08-16T14:01:54.518Z,100112.00
2022-08-16T14:04:26.806Z,100110.00
2022-08-16T14:06:56.406Z,100119.00
2022-08-16T14:09:24.973Z,100113.00
2022-08-16T14:11:57.568Z,100115.00
2022-08-16T14:14:29.047Z,100114.00
2022-08-16T14:16:57.982Z,100114.00
2022-08-16T14:19:27.691Z,100123.00
2022-08-16T14:22:14.365Z,100113.00
2022-08-16T14:24:47.478Z,100100.00
2022-08-16T14:27:18.047Z,100123.00
2022-08-16T14:29:49.318Z,100121.00
2022-08-16T14:32:26.993Z,100114.00
2022-08-16T14:35:04.190Z,100113.00
2022-08-16T14:37:32.123Z,100119.00
2022-08-16T14:40:00.797Z,100119.00
2022-08-16T14:42:30.051Z,100089.00
2022-08-16T14:45:00.269Z,100117.00
2022-08-16T14:47:34.288Z,100114.00
2022-08-16T14:50:03.218Z,100112.00
2022-08-16T14:55:23.002Z,100107.00
2022-08-16T14:57:52.846Z,100095.00
2022-08-16T15:00:33.167Z,100100.00
2022-08-16T15:03:04.760Z,100094.00
2022-08-16T15:05:33.947Z,100089.00
2022-08-16T15:08:03.102Z,100096.00
2022-08-16T15:10:32.248Z,100097.00
2022-08-16T15:13:01.959Z,100087.00
2022-08-16T15:15:31.512Z,100099.00
2022-08-16T15:18:01.727Z,100102.00
2022-08-16T15:20:33.685Z,100102.00
2022-08-16T15:23:03.605Z,100088.00
2022-08-16T15:25:35.145Z,100104.00
2022-08-16T15:28:08.606Z,100102.00
2022-08-16T15:30:59.312Z,100105.00
2022-08-16T15:33:29.127Z,100105.00
2022-08-16T15:36:00.288Z,100113.00
2022-08-16T15:38:57.874Z,100109.00
2022-08-16T15:41:53.799Z,100096.00
2022-08-16T15:44:25.868Z,100110.00
2022-08-16T15:46:58.641Z,100113.00
2022-08-16T15:49:36.987Z,100106.00
2022-08-16T15:52:10.464Z,100111.00
2022-08-16T15:54:52.198Z,100105.00
2022-08-16T15:57:22.261Z,100102.00
2022-08-16T15:59:55.772Z,100118.00
2022-08-16T16:02:29.653Z,100109.00
2022-08-16T16:05:04.402Z,100113.00
2022-08-16T16:07:33.772Z,100112.00
2022-08-16T16:10:03.698Z,100115.00
2022-08-16T16:12:50.260Z,100111.00
2022-08-16T16:15:24.511Z,100113.00
2022-08-16T16:17:53.368Z,100113.00
2022-08-16T16:20:24.483Z,100117.00
2022-08-16T16:22:57.691Z,100119.00
2022-08-16T16:25:26.364Z,100120.00
2022-08-16T16:27:55.821Z,100102.00
2022-08-16T16:30:38.159Z,100124.00
2022-08-16T16:33:21.319Z,100120.00
2022-08-16T16:35:55.342Z,100114.00
2022-08-16T16:38:30.753Z,100124.00
2022-08-16T16:40:59.371Z,100124.00
2022-08-16T16:43:31.888Z,100120.00
2022-08-16T16:46:03.315Z,100133.00
2022-08-16T16:48:52.043Z,100119.00
2022-08-16T16:51:22.224Z,100121.00
2022-08-16T16:53:55.748Z,100122.00
2022-08-16T16:56:31.271Z,100130.00
2022-08-16T16:59:04.502Z,100127.00
2022-08-16T17:01:56.583Z,100118.00
2022-08-16T17:04:31.871Z,100135.00
2022-08-16T17:07:01.650Z,100137.00
2022-08-16T17:09:29.798Z,100127.00
2022-08-16T17:11:58.410Z,100123.00
2022-08-16T17:14:33.477Z,100131.00
2022-08-16T17:17:06.794Z,100135.00
2022-08-16T17:19:40.918Z,100130.00
2022-08-16T17:22:14.497Z,100114.00
2022-08-16T17:24:44.988Z,100135.00
2022-08-16T17:27:18.141Z,100135.00
2022-08-16T17:29:47.465Z,100149.00
2022-08-16T17:32:46.460Z,100147.00
2022-08-16T17:35:18.103Z,100150.00
2022-08-16T17:37:50.918Z,100151.00
2022-08-16T17:40:38.070Z,100154.00
2022-08-16T17:43:12.566Z,100144.00
2022-08-16T17:45:41.266Z,100158.00
2022-08-16T17:48:10.849Z,100149.00
2022-08-16T17:50:39.144Z,100158.00
2022-08-16T17:53:07.724Z,100152.00
2022-08-16T17:55:38.628Z,100156.00
2022-08-16T17:58:21.293Z,100162.00
2022-08-16T18:00:51.694Z,100158.00
2022-08-16T18:04:06.907Z,100166.00
2022-08-16T18:06:15.673Z,100172.00
2022-08-16T18:08:43.679Z,100174.00
2022-08-16T18:11:13.344Z,100175.00
2022-08-16T18:13:43.065Z,100180.00
2022-08-16T18:16:11.541Z,100177.00
2022-08-16T18:18:40.788Z,100184.00
2022-08-16T18:21:26.370Z,100184.00
2022-08-16T18:23:54.666Z,100177.00
2022-08-16T18:26:22.523Z,100181.00
2022-08-16T18:28:50.560Z,100186.00
2022-08-16T18:31:18.457Z,100180.00
2022-08-16T18:33:47.600Z,100183.00
2022-08-16T18:36:21.182Z,100191.00
2022-08-16T18:38:49.859Z,100176.00
2022-08-16T18:41:18.472Z,100182.00
2022-08-16T18:44:24.121Z,100184.00
2022-08-16T18:46:34.387Z,100191.00
2022-08-16T18:49:03.768Z,100196.00
2022-08-16T18:51:32.336Z,100202.00
2022-08-16T18:54:00.301Z,100206.00
2022-08-16T18:56:56.073Z,100202.00
2022-08-16T18:59:16.223Z,100214.00
2022-08-16T19:01:44.090Z,100211.00
2022-08-16T19:04:47.623Z,100221.00
2022-08-16T19:07:01.559Z,100222.00
2022-08-16T19:09:29.607Z,100224.00
2022-08-16T19:11:57.452Z,100227.00
2022-08-16T19:14:29.995Z,100220.00
2022-08-16T19:16:57.890Z,100224.00
2022-08-16T19:19:27.275Z,100233.00
2022-08-16T19:21:55.130Z,100235.00
2022-08-16T19:24:22.967Z,100224.00
2022-08-16T19:26:57.236Z,100238.00
2022-08-16T19:29:25.185Z,100244.00
2022-08-16T19:31:53.273Z,100230.00
2022-08-16T19:34:21.105Z,100250.00
2022-08-16T19:36:50.497Z,100223.00
2022-08-16T19:39:18.528Z,100250.00
2022-08-16T19:41:53.863Z,100252.00
2022-08-16T19:44:22.635Z,100261.00
2022-08-16T19:46:50.617Z,100253.00
2022-08-16T19:49:18.519Z,100257.00
2022-08-16T19:51:46.883Z,100247.00
2022-08-16T19:54:17.184Z,100254.00
2022-08-16T19:56:45.100Z,100261.00
2022-08-16T19:59:19.964Z,100258.00
2022-08-16T20:01:51.874Z,100260.00
2022-08-16T20:04:21.479Z,100259.00
2022-08-16T20:06:49.386Z,100259.00
2022-08-16T20:09:18.677Z,100259.00
2022-08-16T20:11:48.020Z,100274.00
2022-08-16T20:14:20.225Z,100278.00
2022-08-16T20:16:55.507Z,100274.00
2022-08-16T20:19:23.386Z,100272.00
2022-08-16T20:21:51.263Z,100260.00
2022-08-16T20:24:33.947Z,100267.00
2022-08-16T20:27:04.419Z,100278.00
2022-08-16T20:29:32.266Z,100277.00
2022-08-16T20:32:00.241Z,100278.00
2022-08-16T20:34:28.080Z,100276.00
2022-08-16T20:36:55.896Z,100277.00
2022-08-16T20:39:25.232Z,100273.00
2022-08-16T20:41:53.240Z,100279.00
2022-08-16T20:44:22.840Z,100286.00
2022-08-16T20:46:50.982Z,100290.00
2022-08-16T20:49:18.851Z,100288.00
2022-08-16T20:51:50.538Z,100287.00
2022-08-16T20:54:22.511Z,100285.00
2022-08-16T20:56:51.855Z,100296.00
2022-08-16T20:59:19.878Z,100292.00
2022-08-16T21:01:50.317Z,100306.00
2022-08-16T21:04:19.046Z,100297.00
2022-08-16T21:06:53.597Z,100302.00
2022-08-16T21:09:23.486Z,100292.00
2022-08-16T21:11:53.928Z,100291.00
2022-08-16T21:14:21.910Z,100311.00
2022-08-16T21:16:49.773Z,100304.00
2022-08-16T21:19:18.156Z,100322.00
2022-08-16T21:21:45.990Z,100306.00
2022-08-16T21:24:15.080Z,100322.00
2022-08-16T21:26:47.408Z,100318.00
2022-08-16T21:29:39.570Z,100324.00
2022-08-16T21:32:13.703Z,100315.00
2022-08-16T21:34:42.958Z,100301.00
2022-08-16T21:37:10.895Z,100310.00
2022-08-16T21:39:38.866Z,100313.00
2022-08-16T21:42:10.318Z,100314.00
2022-08-16T21:44:39.913Z,100313.00
2022-08-16T21:47:08.404Z,100315.00
2022-08-16T21:49:37.743Z,100307.00
2022-08-16T21:52:06.419Z,100314.00
2022-08-16T21:54:34.373Z,100308.00
2022-08-16T21:57:02.242Z,100311.00
2022-08-16T21:59:30.138Z,100306.00
2022-08-16T22:02:00.351Z,100295.00
2022-08-16T22:04:37.921Z,100305.00
2022-08-16T22:07:06.948Z,100294.00
2022-08-16T22:09:34.994Z,100314.00
2022-08-16T22:12:03.111Z,100313.00
2022-08-16T22:14:31.077Z,100315.00
2022-08-16T22:17:00.432Z,100309.00
2022-08-16T22:19:28.294Z,100324.00
2022-08-16T22:21:56.518Z,100322.00
2022-08-16T22:24:24.301Z,100312.00
2022-08-16T22:26:52.179Z,100326.00
2022-08-16T22:29:20.318Z,100330.00
2022-08-16T22:31:48.223Z,100335.00
2022-08-16T22:34:17.544Z,100323.00
2022-08-16T22:36:45.593Z,100299.00
2022-08-16T22:39:15.122Z,100330.00
2022-08-16T22:41:45.697Z,100324.00
2022-08-16T22:44:13.939Z,100321.00
2022-08-16T22:46:43.392Z,100316.00
2022-08-16T22:49:11.914Z,100313.00
2022-08-16T22:51:41.402Z,100326.00
2022-08-16T22:54:41.332Z,100318.00
2022-08-16T22:56:57.726Z,100318.00
2022-08-16T22:59:26.077Z,100338.00
2022-08-16T23:01:54.611Z,100321.00
2022-08-16T23:04:22.798Z,100331.00
2022-08-16T23:06:52.519Z,100331.00
2022-08-16T23:09:20.509Z,100332.00
2022-08-16T23:11:49.034Z,100309.00
2022-08-16T23:14:18.051Z,100330.00
2022-08-16T23:16:47.452Z,100330.00
2022-08-16T23:19:17.459Z,100326.00
2022-08-16T23:21:48.282Z,100330.00
2022-08-16T23:24:19.314Z,100333.00
2022-08-16T23:26:48.984Z,100303.00
2022-08-16T23:29:24.422Z,100303.00
2022-08-16T23:31:57.471Z,100330.00
2022-08-16T23:34:27.848Z,100320.00
2022-08-16T23:36:55.950Z,100318.00
2022-08-16T23:39:25.962Z,100320.00
2022-08-16T23:41:54.108Z,100313.00
2022-08-16T23:44:57.209Z,100290.00
2022-08-16T23:47:09.783Z,100314.00
2022-08-16T23:49:59.556Z,100308.00
2022-08-16T23:52:53.271Z,100302.00
2022-08-16T23:55:16.427Z,100310.00
2022-08-16T23:57:45.827Z,100306.00
